sensor_id;sensor_type;location;lat;lon;timestamp;P1;durP1;ratioP1;P2;durP2;ratioP2
22711;SDS011;11523;50.390;8.072;2023-06-26T03:04:01;9.75;;;7.93;;
22711;SDS011;11523;50.390;8.072;2023-06-26T03:06:43;9.80;;;7.68;;
22711;SDS011;11523;50.390;8.072;2023-06-26T03:09:11;8.95;;;8.07;;
22711;SDS011;11523;50.390;8.072;2023-06-26T03:11:40;9.13;;;7.55;;
22711;SDS011;11523;50.390;8.072;2023-06-26T03:14:06;9.57;;;8.48;;
22711;SDS011;11523;50.390;8.072;2023-06-26T03:16:32;8.98;;;8.13;;
22711;SDS011;11523;50.390;8.072;2023-06-26T03:19:00;9.05;;;8.18;;
22711;SDS011;11523;50.390;8.072;2023-06-26T03:21:26;8.65;;;7.75;;
22711;SDS011;11523;50.390;8.072;2023-06-26T03:24:00;8.98;;;7.75;;
22711;SDS011;11523;50.390;8.072;2023-06-26T03:26:29;9.20;;;8.30;;
22711;SDS011;11523;50.390;8.072;2023-06-26T03:28:55;11.82;;;8.45;;
22711;SDS011;11523;50.390;8.072;2023-06-26T03:31:24;12.32;;;8.50;;
22711;SDS011;11523;50.390;8.072;2023-06-26T03:33:50;9.80;;;8.23;;
22711;SDS011;11523;50.390;8.072;2023-06-26T03:36:16;9.10;;;7.90;;
22711;SDS011;11523;50.390;8.072;2023-06-26T03:38:42;8.80;;;8.00;;
22711;SDS011;11523;50.390;8.072;2023-06-26T03:41:11;9.35;;;8.20;;
22711;SDS011;11523;50.390;8.072;2023-06-26T03:43:39;8.75;;;7.82;;
22711;SDS011;11523;50.390;8.072;2023-06-26T03:46:08;9.73;;;8.25;;
22711;SDS011;11523;50.390;8.072;2023-06-26T03:48:34;10.85;;;7.93;;
22711;SDS011;11523;50.390;8.072;2023-06-26T03:51:10;13.27;;;8.70;;
22711;SDS011;11523;50.390;8.072;2023-06-26T03:53:38;15.63;;;8.70;;
22711;SDS011;11523;50.390;8.072;2023-06-26T03:56:07;12.05;;;9.10;;
22711;SDS011;11523;50.390;8.072;2023-06-26T03:58:37;10.40;;;8.52;;
22711;SDS011;11523;50.390;8.072;2023-06-26T04:01:03;14.20;;;9.30;;
22711;SDS011;11523;50.390;8.072;2023-06-26T04:03:29;15.68;;;8.80;;
22711;SDS011;11523;50.390;8.072;2023-06-26T04:05:57;12.00;;;8.32;;
22711;SDS011;11523;50.390;8.072;2023-06-26T04:08:26;15.20;;;9.40;;
22711;SDS011;11523;50.390;8.072;2023-06-26T04:10:52;17.35;;;9.25;;
22711;SDS011;11523;50.390;8.072;2023-06-26T04:13:18;15.35;;;8.43;;
22711;SDS011;11523;50.390;8.072;2023-06-26T04:15:44;8.80;;;7.90;;
22711;SDS011;11523;50.390;8.072;2023-06-26T04:18:10;8.88;;;7.97;;
22711;SDS011;11523;50.390;8.072;2023-06-26T04:21:03;11.40;;;8.95;;
22711;SDS011;11523;50.390;8.072;2023-06-26T04:23:31;9.60;;;8.57;;
22711;SDS011;11523;50.390;8.072;2023-06-26T04:25:57;11.25;;;8.90;;
22711;SDS011;11523;50.390;8.072;2023-06-26T04:28:23;9.23;;;8.40;;
22711;SDS011;11523;50.390;8.072;2023-06-26T04:30:52;10.07;;;8.52;;
22711;SDS011;11523;50.390;8.072;2023-06-26T04:33:21;13.60;;;8.82;;
22711;SDS011;11523;50.390;8.072;2023-06-26T04:35:55;9.38;;;8.45;;
22711;SDS011;11523;50.390;8.072;2023-06-26T04:38:36;9.48;;;8.50;;
22711;SDS011;11523;50.390;8.072;2023-06-26T04:41:02;11.15;;;8.50;;
22711;SDS011;11523;50.390;8.072;2023-06-26T04:43:37;11.23;;;9.07;;
22711;SDS011;11523;50.390;8.072;2023-06-26T04:46:19;12.60;;;9.13;;
22711;SDS011;11523;50.390;8.072;2023-06-26T05:09:08;10.50;;;9.40;;
22711;SDS011;11523;50.390;8.072;2023-06-26T05:11:40;10.52;;;9.52;;
22711;SDS011;11523;50.390;8.072;2023-06-26T05:14:06;10.88;;;9.07;;
22711;SDS011;11523;50.390;8.072;2023-06-26T05:16:32;11.30;;;9.35;;
22711;SDS011;11523;50.390;8.072;2023-06-26T05:18:58;10.55;;;9.55;;
22711;SDS011;11523;50.390;8.072;2023-06-26T05:21:24;10.38;;;9.27;;
22711;SDS011;11523;50.390;8.072;2023-06-26T05:23:51;11.52;;;9.52;;
22711;SDS011;11523;50.390;8.072;2023-06-26T05:26:17;11.05;;;9.48;;
22711;SDS011;11523;50.390;8.072;2023-06-26T05:28:43;12.35;;;9.65;;
22711;SDS011;11523;50.390;8.072;2023-06-26T05:31:13;10.85;;;9.63;;
22711;SDS011;11523;50.390;8.072;2023-06-26T05:33:39;11.02;;;9.85;;
22711;SDS011;11523;50.390;8.072;2023-06-26T05:36:08;11.02;;;9.52;;
22711;SDS011;11523;50.390;8.072;2023-06-26T05:38:34;11.70;;;9.73;;
22711;SDS011;11523;50.390;8.072;2023-06-26T05:41:01;10.52;;;9.52;;
22711;SDS011;11523;50.390;8.072;2023-06-26T05:43:27;13.30;;;9.65;;
22711;SDS011;11523;50.390;8.072;2023-06-26T05:45:53;10.40;;;9.38;;
22711;SDS011;11523;50.390;8.072;2023-06-26T05:48:18;12.10;;;10.05;;
22711;SDS011;11523;50.390;8.072;2023-06-26T05:50:44;10.60;;;9.20;;
22711;SDS011;11523;50.390;8.072;2023-06-26T05:53:11;12.25;;;10.07;;
22711;SDS011;11523;50.390;8.072;2023-06-26T05:55:37;11.20;;;9.88;;
22711;SDS011;11523;50.390;8.072;2023-06-26T05:58:04;10.60;;;9.50;;
22711;SDS011;11523;50.390;8.072;2023-06-26T06:00:30;11.65;;;10.00;;
22711;SDS011;11523;50.390;8.072;2023-06-26T06:02:56;14.98;;;10.60;;
22711;SDS011;11523;50.390;8.072;2023-06-26T06:05:22;10.85;;;9.70;;
22711;SDS011;11523;50.390;8.072;2023-06-26T06:07:48;13.68;;;10.00;;
22711;SDS011;11523;50.390;8.072;2023-06-26T06:10:14;12.85;;;10.00;;
22711;SDS011;11523;50.390;8.072;2023-06-26T06:12:40;11.00;;;9.85;;
22711;SDS011;11523;50.390;8.072;2023-06-26T06:15:06;10.07;;;9.10;;
22711;SDS011;11523;50.390;8.072;2023-06-26T06:17:32;11.05;;;9.90;;
22711;SDS011;11523;50.390;8.072;2023-06-26T06:19:58;11.75;;;10.15;;
22711;SDS011;11523;50.390;8.072;2023-06-26T06:22:24;14.80;;;11.25;;
22711;SDS011;11523;50.390;8.072;2023-06-26T06:24:50;13.88;;;10.85;;
22711;SDS011;11523;50.390;8.072;2023-06-26T06:27:16;12.32;;;10.70;;
22711;SDS011;11523;50.390;8.072;2023-06-26T06:29:42;12.27;;;10.90;;
22711;SDS011;11523;50.390;8.072;2023-06-26T06:32:08;14.20;;;11.40;;
22711;SDS011;11523;50.390;8.072;2023-06-26T06:34:35;17.25;;;11.77;;
22711;SDS011;11523;50.390;8.072;2023-06-26T06:37:01;17.10;;;11.13;;
22711;SDS011;11523;50.390;8.072;2023-06-26T06:39:27;14.18;;;12.65;;
22711;SDS011;11523;50.390;8.072;2023-06-26T06:41:53;16.65;;;12.30;;
22711;SDS011;11523;50.390;8.072;2023-06-26T06:44:19;16.05;;;11.27;;
22711;SDS011;11523;50.390;8.072;2023-06-26T06:46:45;19.40;;;13.80;;
22711;SDS011;11523;50.390;8.072;2023-06-26T06:49:11;23.73;;;14.88;;
22711;SDS011;11523;50.390;8.072;2023-06-26T06:51:37;18.40;;;12.73;;
22711;SDS011;11523;50.390;8.072;2023-06-26T06:54:03;15.50;;;11.88;;
22711;SDS011;11523;50.390;8.072;2023-06-26T06:56:29;14.23;;;9.85;;
22711;SDS011;11523;50.390;8.072;2023-06-26T06:58:55;11.73;;;9.27;;
22711;SDS011;11523;50.390;8.072;2023-06-26T07:01:21;12.30;;;9.65;;
22711;SDS011;11523;50.390;8.072;2023-06-26T07:03:46;11.70;;;9.38;;
22711;SDS011;11523;50.390;8.072;2023-06-26T07:06:12;10.35;;;8.27;;
22711;SDS011;11523;50.390;8.072;2023-06-26T07:08:38;12.65;;;8.50;;
22711;SDS011;11523;50.390;8.072;2023-06-26T07:11:04;9.60;;;8.45;;
22711;SDS011;11523;50.390;8.072;2023-06-26T07:13:30;10.70;;;7.93;;
22711;SDS011;11523;50.390;8.072;2023-06-26T07:15:56;8.73;;;7.93;;
22711;SDS011;11523;50.390;8.072;2023-06-26T07:18:22;9.75;;;6.82;;
22711;SDS011;11523;50.390;8.072;2023-06-26T07:20:48;8.27;;;6.90;;
22711;SDS011;11523;50.390;8.072;2023-06-26T07:23:14;13.20;;;7.15;;
22711;SDS011;11523;50.390;8.072;2023-06-26T07:25:40;7.43;;;6.70;;
22711;SDS011;11523;50.390;8.072;2023-06-26T07:28:09;8.68;;;6.57;;
22711;SDS011;11523;50.390;8.072;2023-06-26T07:30:35;6.22;;;5.63;;
22711;SDS011;11523;50.390;8.072;2023-06-26T07:33:01;8.85;;;6.07;;
22711;SDS011;11523;50.390;8.072;2023-06-26T07:35:27;10.73;;;5.95;;
22711;SDS011;11523;50.390;8.072;2023-06-26T07:37:53;10.18;;;6.40;;
22711;SDS011;11523;50.390;8.072;2023-06-26T07:40:19;8.45;;;6.80;;
22711;SDS011;11523;50.390;8.072;2023-06-26T07:42:46;7.47;;;6.10;;
22711;SDS011;11523;50.390;8.072;2023-06-26T07:45:12;7.53;;;6.13;;
22711;SDS011;11523;50.390;8.072;2023-06-26T07:47:38;15.50;;;6.45;;
22711;SDS011;11523;50.390;8.072;2023-06-26T07:50:04;7.80;;;6.63;;
22711;SDS011;11523;50.390;8.072;2023-06-26T07:52:30;10.63;;;6.88;;
22711;SDS011;11523;50.390;8.072;2023-06-26T07:54:57;6.85;;;6.15;;
22711;SDS011;11523;50.390;8.072;2023-06-26T07:57:23;7.45;;;5.97;;
22711;SDS011;11523;50.390;8.072;2023-06-26T07:59:49;7.75;;;6.35;;
22711;SDS011;11523;50.390;8.072;2023-06-26T08:02:15;7.60;;;6.22;;
22711;SDS011;11523;50.390;8.072;2023-06-26T08:04:41;8.50;;;7.07;;
22711;SDS011;11523;50.390;8.072;2023-06-26T08:07:07;10.52;;;6.85;;
22711;SDS011;11523;50.390;8.072;2023-06-26T08:09:34;7.53;;;6.43;;
22711;SDS011;11523;50.390;8.072;2023-06-26T08:12:00;7.55;;;6.68;;
22711;SDS011;11523;50.390;8.072;2023-06-26T08:14:26;11.70;;;6.68;;
22711;SDS011;11523;50.390;8.072;2023-06-26T08:16:52;7.25;;;6.55;;
22711;SDS011;11523;50.390;8.072;2023-06-26T08:19:18;7.25;;;6.63;;
22711;SDS011;11523;50.390;8.072;2023-06-26T08:21:44;8.55;;;6.68;;
22711;SDS011;11523;50.390;8.072;2023-06-26T08:24:10;9.38;;;6.88;;
22711;SDS011;11523;50.390;8.072;2023-06-26T08:26:45;7.25;;;6.57;;
22711;SDS011;11523;50.390;8.072;2023-06-26T08:29:11;9.38;;;6.78;;
22711;SDS011;11523;50.390;8.072;2023-06-26T08:31:38;7.72;;;6.35;;
22711;SDS011;11523;50.390;8.072;2023-06-26T08:34:04;7.53;;;6.65;;
22711;SDS011;11523;50.390;8.072;2023-06-26T08:36:30;11.02;;;6.38;;
22711;SDS011;11523;50.390;8.072;2023-06-26T08:38:57;9.30;;;6.97;;
22711;SDS011;11523;50.390;8.072;2023-06-26T08:41:23;8.55;;;7.07;;
22711;SDS011;11523;50.390;8.072;2023-06-26T08:43:48;8.02;;;6.80;;
22711;SDS011;11523;50.390;8.072;2023-06-26T08:46:17;10.02;;;7.10;;
22711;SDS011;11523;50.390;8.072;2023-06-26T08:48:48;8.90;;;6.53;;
22711;SDS011;11523;50.390;8.072;2023-06-26T08:51:16;6.55;;;5.95;;
22711;SDS011;11523;50.390;8.072;2023-06-26T08:56:17;8.18;;;5.95;;
22711;SDS011;11523;50.390;8.072;2023-06-26T08:58:46;9.48;;;6.80;;
22711;SDS011;11523;50.390;8.072;2023-06-26T09:01:13;9.48;;;6.10;;
22711;SDS011;11523;50.390;8.072;2023-06-26T09:03:39;6.43;;;5.82;;
22711;SDS011;11523;50.390;8.072;2023-06-26T09:06:06;8.82;;;6.25;;
22711;SDS011;11523;50.390;8.072;2023-06-26T09:08:39;9.63;;;5.55;;
22711;SDS011;11523;50.390;8.072;2023-06-26T09:11:11;7.25;;;6.00;;
22711;SDS011;11523;50.390;8.072;2023-06-26T09:13:37;10.23;;;6.18;;
22711;SDS011;11523;50.390;8.072;2023-06-26T09:16:06;10.50;;;6.43;;
22711;SDS011;11523;50.390;8.072;2023-06-26T09:18:32;6.88;;;6.13;;
22711;SDS011;11523;50.390;8.072;2023-06-26T09:20:58;7.13;;;5.88;;
22711;SDS011;11523;50.390;8.072;2023-06-26T09:23:24;7.82;;;5.80;;
22711;SDS011;11523;50.390;8.072;2023-06-26T09:25:51;5.50;;;5.00;;
22711;SDS011;11523;50.390;8.072;2023-06-26T09:28:17;9.73;;;5.35;;
22711;SDS011;11523;50.390;8.072;2023-06-26T09:30:44;7.60;;;5.25;;
22711;SDS011;11523;50.390;8.072;2023-06-26T09:33:15;8.23;;;5.38;;
22711;SDS011;11523;50.390;8.072;2023-06-26T09:35:42;7.88;;;5.32;;
22711;SDS011;11523;50.390;8.072;2023-06-26T09:38:08;5.95;;;4.70;;
22711;SDS011;11523;50.390;8.072;2023-06-26T09:40:34;8.63;;;4.60;;
22711;SDS011;11523;50.390;8.072;2023-06-26T09:43:09;8.98;;;5.97;;
22711;SDS011;11523;50.390;8.072;2023-06-26T09:45:39;8.05;;;5.38;;
22711;SDS011;11523;50.390;8.072;2023-06-26T09:48:06;6.10;;;4.53;;
22711;SDS011;11523;50.390;8.072;2023-06-26T09:50:36;10.07;;;5.28;;
22711;SDS011;11523;50.390;8.072;2023-06-26T09:53:07;6.50;;;5.05;;
22711;SDS011;11523;50.390;8.072;2023-06-26T09:55:34;8.27;;;5.45;;
22711;SDS011;11523;50.390;8.072;2023-06-26T09:58:01;5.80;;;4.70;;
22711;SDS011;11523;50.390;8.072;2023-06-26T10:00:28;8.52;;;5.18;;
22711;SDS011;11523;50.390;8.072;2023-06-26T10:02:54;8.23;;;5.72;;
22711;SDS011;11523;50.390;8.072;2023-06-26T10:05:19;10.18;;;5.07;;
22711;SDS011;11523;50.390;8.072;2023-06-26T10:07:45;9.25;;;5.05;;
22711;SDS011;11523;50.390;8.072;2023-06-26T10:10:13;8.68;;;4.82;;
22711;SDS011;11523;50.390;8.072;2023-06-26T10:12:39;7.28;;;4.70;;
22711;SDS011;11523;50.390;8.072;2023-06-26T10:15:05;6.88;;;4.70;;
22711;SDS011;11523;50.390;8.072;2023-06-26T10:17:35;8.07;;;5.68;;
22711;SDS011;11523;50.390;8.072;2023-06-26T10:20:02;6.07;;;4.60;;
22711;SDS011;11523;50.390;8.072;2023-06-26T10:22:29;7.30;;;4.80;;
22711;SDS011;11523;50.390;8.072;2023-06-26T10:24:58;7.13;;;5.10;;
22711;SDS011;11523;50.390;8.072;2023-06-26T10:27:25;8.30;;;4.82;;
22711;SDS011;11523;50.390;8.072;2023-06-26T10:29:54;6.10;;;4.70;;
22711;SDS011;11523;50.390;8.072;2023-06-26T10:32:21;11.20;;;4.80;;
22711;SDS011;11523;50.390;8.072;2023-06-26T10:34:49;15.05;;;4.93;;
22711;SDS011;11523;50.390;8.072;2023-06-26T10:37:15;8.10;;;5.03;;
22711;SDS011;11523;50.390;8.072;2023-06-26T10:42:14;8.48;;;4.78;;
22711;SDS011;11523;50.390;8.072;2023-06-26T10:44:41;6.40;;;4.22;;
22711;SDS011;11523;50.390;8.072;2023-06-26T10:47:08;8.20;;;4.85;;
22711;SDS011;11523;50.390;8.072;2023-06-26T10:49:35;7.30;;;4.65;;
22711;SDS011;11523;50.390;8.072;2023-06-26T10:52:02;11.25;;;5.63;;
22711;SDS011;11523;50.390;8.072;2023-06-26T10:54:28;8.05;;;4.70;;
22711;SDS011;11523;50.390;8.072;2023-06-26T10:56:55;7.50;;;5.25;;
22711;SDS011;11523;50.390;8.072;2023-06-26T10:59:25;7.20;;;5.57;;
22711;SDS011;11523;50.390;8.072;2023-06-26T11:02:01;9.27;;;5.28;;
22711;SDS011;11523;50.390;8.072;2023-06-26T11:07:31;7.80;;;5.37;;
22711;SDS011;11523;50.390;8.072;2023-06-26T11:10:01;7.50;;;5.38;;
22711;SDS011;11523;50.390;8.072;2023-06-26T11:15:09;8.23;;;5.18;;
22711;SDS011;11523;50.390;8.072;2023-06-26T11:17:35;9.57;;;4.70;;
22711;SDS011;11523;50.390;8.072;2023-06-26T11:20:02;6.97;;;4.95;;
22711;SDS011;11523;50.390;8.072;2023-06-26T11:22:29;6.68;;;4.45;;
22711;SDS011;11523;50.390;8.072;2023-06-26T11:24:59;9.27;;;4.72;;
22711;SDS011;11523;50.390;8.072;2023-06-26T11:27:31;12.90;;;4.40;;
22711;SDS011;11523;50.390;8.072;2023-06-26T11:29:57;8.15;;;4.43;;
22711;SDS011;11523;50.390;8.072;2023-06-26T11:32:23;5.68;;;3.88;;
22711;SDS011;11523;50.390;8.072;2023-06-26T11:34:51;7.82;;;4.20;;
22711;SDS011;11523;50.390;8.072;2023-06-26T11:37:19;8.45;;;4.38;;
22711;SDS011;11523;50.390;8.072;2023-06-26T11:39:45;7.00;;;4.40;;
22711;SDS011;11523;50.390;8.072;2023-06-26T11:42:11;5.95;;;4.00;;
22711;SDS011;11523;50.390;8.072;2023-06-26T11:44:40;7.15;;;4.50;;
22711;SDS011;11523;50.390;8.072;2023-06-26T11:47:07;7.53;;;4.32;;
22711;SDS011;11523;50.390;8.072;2023-06-26T11:49:33;7.32;;;4.15;;
22711;SDS011;11523;50.390;8.072;2023-06-26T11:52:02;8.88;;;4.32;;
22711;SDS011;11523;50.390;8.072;2023-06-26T11:54:28;7.53;;;4.38;;
22711;SDS011;11523;50.390;8.072;2023-06-26T11:56:57;9.90;;;4.32;;
22711;SDS011;11523;50.390;8.072;2023-06-26T11:59:23;7.35;;;4.15;;
22711;SDS011;11523;50.390;8.072;2023-06-26T12:01:50;7.05;;;3.95;;
22711;SDS011;11523;50.390;8.072;2023-06-26T12:04:18;7.30;;;4.32;;
22711;SDS011;11523;50.390;8.072;2023-06-26T12:06:49;5.78;;;3.65;;
22711;SDS011;11523;50.390;8.072;2023-06-26T12:09:15;7.63;;;3.47;;
22711;SDS011;11523;50.390;8.072;2023-06-26T12:11:43;6.80;;;3.60;;
22711;SDS011;11523;50.390;8.072;2023-06-26T12:14:10;5.15;;;3.47;;
22711;SDS011;11523;50.390;8.072;2023-06-26T12:16:36;6.88;;;3.40;;
22711;SDS011;11523;50.390;8.072;2023-06-26T12:19:04;5.10;;;3.45;;
22711;SDS011;11523;50.390;8.072;2023-06-26T12:24:03;8.18;;;3.67;;
22711;SDS011;11523;50.390;8.072;2023-06-26T12:26:29;4.95;;;3.17;;
22711;SDS011;11523;50.390;8.072;2023-06-26T12:29:05;6.05;;;3.08;;
22711;SDS011;11523;50.390;8.072;2023-06-26T12:31:31;10.75;;;3.30;;
22711;SDS011;11523;50.390;8.072;2023-06-26T12:33:57;5.95;;;3.28;;
22711;SDS011;11523;50.390;8.072;2023-06-26T12:36:23;4.50;;;2.60;;
22711;SDS011;11523;50.390;8.072;2023-06-26T12:38:49;6.05;;;3.08;;
22711;SDS011;11523;50.390;8.072;2023-06-26T12:41:15;5.38;;;3.03;;
22711;SDS011;11523;50.390;8.072;2023-06-26T12:43:42;5.80;;;2.67;;
22711;SDS011;11523;50.390;8.072;2023-06-26T12:46:08;8.13;;;2.72;;
22711;SDS011;11523;50.390;8.072;2023-06-26T12:48:41;6.00;;;2.70;;
22711;SDS011;11523;50.390;8.072;2023-06-26T12:51:14;6.32;;;3.03;;
22711;SDS011;11523;50.390;8.072;2023-06-26T12:53:41;5.43;;;2.47;;
22711;SDS011;11523;50.390;8.072;2023-06-26T12:56:07;7.13;;;2.70;;
22711;SDS011;11523;50.390;8.072;2023-06-26T12:58:36;6.90;;;2.72;;
22711;SDS011;11523;50.390;8.072;2023-06-26T13:01:03;7.53;;;2.72;;
22711;SDS011;11523;50.390;8.072;2023-06-26T13:03:29;7.57;;;2.65;;
22711;SDS011;11523;50.390;8.072;2023-06-26T13:05:55;7.57;;;2.83;;
22711;SDS011;11523;50.390;8.072;2023-06-26T13:08:21;6.88;;;2.72;;
22711;SDS011;11523;50.390;8.072;2023-06-26T13:10:47;5.38;;;2.33;;
22711;SDS011;11523;50.390;8.072;2023-06-26T13:13:13;8.07;;;2.78;;
22711;SDS011;11523;50.390;8.072;2023-06-26T13:15:39;4.07;;;2.25;;
22711;SDS011;11523;50.390;8.072;2023-06-26T13:18:05;5.60;;;2.35;;
22711;SDS011;11523;50.390;8.072;2023-06-26T13:20:31;5.32;;;1.85;;
22711;SDS011;11523;50.390;8.072;2023-06-26T13:22:57;3.47;;;2.42;;
22711;SDS011;11523;50.390;8.072;2023-06-26T13:25:23;6.88;;;2.42;;
22711;SDS011;11523;50.390;8.072;2023-06-26T13:27:49;6.22;;;2.47;;
22711;SDS011;11523;50.390;8.072;2023-06-26T13:30:15;8.85;;;2.75;;
22711;SDS011;11523;50.390;8.072;2023-06-26T13:32:41;6.82;;;2.47;;
22711;SDS011;11523;50.390;8.072;2023-06-26T13:35:07;3.40;;;2.05;;
22711;SDS011;11523;50.390;8.072;2023-06-26T13:37:34;5.70;;;2.17;;
22711;SDS011;11523;50.390;8.072;2023-06-26T13:40:01;2.88;;;2.03;;
22711;SDS011;11523;50.390;8.072;2023-06-26T13:42:28;5.88;;;2.08;;
22711;SDS011;11523;50.390;8.072;2023-06-26T13:44:54;7.18;;;2.65;;
22711;SDS011;11523;50.390;8.072;2023-06-26T13:47:20;4.50;;;2.05;;
22711;SDS011;11523;50.390;8.072;2023-06-26T13:49:46;4.95;;;2.47;;
22711;SDS011;11523;50.390;8.072;2023-06-26T13:52:12;5.43;;;2.30;;
22711;SDS011;11523;50.390;8.072;2023-06-26T13:54:38;5.57;;;2.50;;
22711;SDS011;11523;50.390;8.072;2023-06-26T13:57:05;8.15;;;2.63;;
22711;SDS011;11523;50.390;8.072;2023-06-26T13:59:32;7.38;;;2.50;;
22711;SDS011;11523;50.390;8.072;2023-06-26T14:01:58;4.57;;;2.00;;
22711;SDS011;11523;50.390;8.072;2023-06-26T14:04:24;4.80;;;2.35;;
22711;SDS011;11523;50.390;8.072;2023-06-26T14:06:50;3.80;;;1.98;;
22711;SDS011;11523;50.390;8.072;2023-06-26T14:09:16;7.13;;;1.90;;
22711;SDS011;11523;50.390;8.072;2023-06-26T14:11:43;6.32;;;2.35;;
22711;SDS011;11523;50.390;8.072;2023-06-26T14:14:09;4.90;;;2.05;;
22711;SDS011;11523;50.390;8.072;2023-06-26T14:16:35;3.10;;;1.90;;
22711;SDS011;11523;50.390;8.072;2023-06-26T14:19:00;4.35;;;2.08;;
22711;SDS011;11523;50.390;8.072;2023-06-26T14:21:27;5.97;;;2.40;;
22711;SDS011;11523;50.390;8.072;2023-06-26T14:23:53;4.72;;;2.40;;
22711;SDS011;11523;50.390;8.072;2023-06-26T14:26:19;6.18;;;2.58;;
22711;SDS011;11523;50.390;8.072;2023-06-26T14:28:45;6.32;;;2.58;;
22711;SDS011;11523;50.390;8.072;2023-06-26T14:31:11;4.13;;;2.25;;
22711;SDS011;11523;50.390;8.072;2023-06-26T14:33:37;5.03;;;2.28;;
22711;SDS011;11523;50.390;8.072;2023-06-26T14:36:02;6.28;;;2.80;;
22711;SDS011;11523;50.390;8.072;2023-06-26T14:38:29;6.40;;;2.50;;
22711;SDS011;11523;50.390;8.072;2023-06-26T14:40:54;4.95;;;2.25;;
22711;SDS011;11523;50.390;8.072;2023-06-26T14:43:21;6.80;;;2.33;;
22711;SDS011;11523;50.390;8.072;2023-06-26T14:45:47;6.07;;;2.33;;
22711;SDS011;11523;50.390;8.072;2023-06-26T14:48:13;6.13;;;2.30;;
22711;SDS011;11523;50.390;8.072;2023-06-26T14:50:39;5.55;;;2.70;;
22711;SDS011;11523;50.390;8.072;2023-06-26T14:53:04;4.05;;;2.30;;
22711;SDS011;11523;50.390;8.072;2023-06-26T14:55:30;5.30;;;2.35;;
22711;SDS011;11523;50.390;8.072;2023-06-26T14:57:56;8.05;;;2.17;;
22711;SDS011;11523;50.390;8.072;2023-06-26T15:00:22;2.17;;;1.70;;
22711;SDS011;11523;50.390;8.072;2023-06-26T15:02:49;3.28;;;1.80;;
22711;SDS011;11523;50.390;8.072;2023-06-26T15:05:18;3.72;;;2.33;;
22711;SDS011;11523;50.390;8.072;2023-06-26T15:07:44;3.97;;;2.13;;
22711;SDS011;11523;50.390;8.072;2023-06-26T15:10:17;5.65;;;2.30;;
22711;SDS011;11523;50.390;8.072;2023-06-26T15:12:49;4.70;;;2.40;;
22711;SDS011;11523;50.390;8.072;2023-06-26T15:15:15;3.22;;;2.03;;
22711;SDS011;11523;50.390;8.072;2023-06-26T15:17:42;5.63;;;2.65;;
22711;SDS011;11523;50.390;8.072;2023-06-26T15:20:08;7.40;;;2.30;;
22711;SDS011;11523;50.390;8.072;2023-06-26T15:22:34;5.63;;;2.40;;
22711;SDS011;11523;50.390;8.072;2023-06-26T15:25:00;6.57;;;2.45;;
22711;SDS011;11523;50.390;8.072;2023-06-26T15:27:26;5.30;;;2.22;;
22711;SDS011;11523;50.390;8.072;2023-06-26T15:29:52;7.95;;;2.45;;
22711;SDS011;11523;50.390;8.072;2023-06-26T15:32:18;6.47;;;2.30;;
22711;SDS011;11523;50.390;8.072;2023-06-26T15:34:44;10.85;;;2.85;;
22711;SDS011;11523;50.390;8.072;2023-06-26T15:37:11;5.50;;;2.55;;
22711;SDS011;11523;50.390;8.072;2023-06-26T15:39:37;8.32;;;2.75;;
22711;SDS011;11523;50.390;8.072;2023-06-26T15:42:04;4.25;;;2.10;;
22711;SDS011;11523;50.390;8.072;2023-06-26T15:44:30;6.05;;;2.47;;
22711;SDS011;11523;50.390;8.072;2023-06-26T15:46:57;4.75;;;2.50;;
22711;SDS011;11523;50.390;8.072;2023-06-26T15:49:23;5.30;;;2.20;;
22711;SDS011;11523;50.390;8.072;2023-06-26T15:51:49;4.95;;;2.20;;
22711;SDS011;11523;50.390;8.072;2023-06-26T15:54:15;3.53;;;2.25;;
22711;SDS011;11523;50.390;8.072;2023-06-26T15:56:41;4.07;;;2.03;;
22711;SDS011;11523;50.390;8.072;2023-06-26T15:59:07;5.38;;;2.28;;
22711;SDS011;11523;50.390;8.072;2023-06-26T16:01:33;7.53;;;2.50;;
22711;SDS011;11523;50.390;8.072;2023-06-26T16:03:59;3.35;;;1.98;;
22711;SDS011;11523;50.390;8.072;2023-06-26T16:06:25;5.13;;;2.28;;
22711;SDS011;11523;50.390;8.072;2023-06-26T16:08:51;7.90;;;2.67;;
22711;SDS011;11523;50.390;8.072;2023-06-26T16:11:17;4.05;;;2.00;;
22711;SDS011;11523;50.390;8.072;2023-06-26T16:13:44;5.28;;;1.77;;
22711;SDS011;11523;50.390;8.072;2023-06-26T16:16:11;8.85;;;2.10;;
22711;SDS011;11523;50.390;8.072;2023-06-26T16:18:38;6.00;;;2.30;;
22711;SDS011;11523;50.390;8.072;2023-06-26T16:21:04;4.25;;;2.20;;
22711;SDS011;11523;50.390;8.072;2023-06-26T16:23:30;2.88;;;2.05;;
22711;SDS011;11523;50.390;8.072;2023-06-26T16:25:57;5.30;;;2.60;;
22711;SDS011;11523;50.390;8.072;2023-06-26T16:28:23;6.47;;;2.20;;
22711;SDS011;11523;50.390;8.072;2023-06-26T16:30:49;5.18;;;1.90;;
22711;SDS011;11523;50.390;8.072;2023-06-26T16:33:15;5.82;;;2.03;;
22711;SDS011;11523;50.390;8.072;2023-06-26T16:35:41;8.93;;;2.08;;
22711;SDS011;11523;50.390;8.072;2023-06-26T16:38:07;4.45;;;2.63;;
22711;SDS011;11523;50.390;8.072;2023-06-26T16:40:34;7.25;;;2.13;;
22711;SDS011;11523;50.390;8.072;2023-06-26T16:43:00;9.13;;;2.15;;
22711;SDS011;11523;50.390;8.072;2023-06-26T16:45:26;5.00;;;2.38;;
22711;SDS011;11523;50.390;8.072;2023-06-26T16:47:52;3.55;;;1.90;;
22711;SDS011;11523;50.390;8.072;2023-06-26T16:50:18;5.97;;;2.17;;
22711;SDS011;11523;50.390;8.072;2023-06-26T16:52:45;3.20;;;1.83;;
22711;SDS011;11523;50.390;8.072;2023-06-26T16:55:11;4.38;;;2.10;;
22711;SDS011;11523;50.390;8.072;2023-06-26T16:57:37;6.72;;;1.55;;
22711;SDS011;11523;50.390;8.072;2023-06-26T17:00:03;4.32;;;1.80;;
22711;SDS011;11523;50.390;8.072;2023-06-26T17:02:30;6.53;;;2.40;;
22711;SDS011;11523;50.390;8.072;2023-06-26T17:04:56;6.70;;;2.08;;
22711;SDS011;11523;50.390;8.072;2023-06-26T17:07:22;5.10;;;1.98;;
22711;SDS011;11523;50.390;8.072;2023-06-26T17:09:49;5.72;;;2.00;;
22711;SDS011;11523;50.390;8.072;2023-06-26T17:12:14;6.20;;;2.10;;
22711;SDS011;11523;50.390;8.072;2023-06-26T17:14:41;6.15;;;1.90;;
22711;SDS011;11523;50.390;8.072;2023-06-26T17:17:07;4.35;;;1.75;;
22711;SDS011;11523;50.390;8.072;2023-06-26T17:19:33;4.25;;;2.10;;
22711;SDS011;11523;50.390;8.072;2023-06-26T17:22:01;4.90;;;2.42;;
22711;SDS011;11523;50.390;8.072;2023-06-26T17:24:27;5.95;;;1.88;;
22711;SDS011;11523;50.390;8.072;2023-06-26T17:26:53;5.72;;;1.80;;
22711;SDS011;11523;50.390;8.072;2023-06-26T17:29:19;6.15;;;1.90;;
22711;SDS011;11523;50.390;8.072;2023-06-26T17:31:45;4.28;;;1.65;;
22711;SDS011;11523;50.390;8.072;2023-06-26T17:34:11;6.03;;;2.05;;
22711;SDS011;11523;50.390;8.072;2023-06-26T17:36:37;6.00;;;1.95;;
22711;SDS011;11523;50.390;8.072;2023-06-26T17:39:03;5.78;;;1.58;;
22711;SDS011;11523;50.390;8.072;2023-06-26T17:41:30;5.85;;;2.20;;
22711;SDS011;11523;50.390;8.072;2023-06-26T17:43:56;2.47;;;1.48;;
22711;SDS011;11523;50.390;8.072;2023-06-26T17:46:22;5.00;;;1.88;;
22711;SDS011;11523;50.390;8.072;2023-06-26T17:48:48;6.22;;;2.35;;
22711;SDS011;11523;50.390;8.072;2023-06-26T17:51:14;4.75;;;1.83;;
22711;SDS011;11523;50.390;8.072;2023-06-26T17:53:40;3.47;;;1.92;;
22711;SDS011;11523;50.390;8.072;2023-06-26T17:56:06;6.78;;;2.17;;
22711;SDS011;11523;50.390;8.072;2023-06-26T17:58:32;5.22;;;2.13;;
22711;SDS011;11523;50.390;8.072;2023-06-26T18:00:58;3.88;;;1.73;;
22711;SDS011;11523;50.390;8.072;2023-06-26T18:03:24;2.58;;;1.80;;
22711;SDS011;11523;50.390;8.072;2023-06-26T18:05:50;5.40;;;1.90;;
22711;SDS011;11523;50.390;8.072;2023-06-26T18:08:16;5.13;;;2.40;;
22711;SDS011;11523;50.390;8.072;2023-06-26T18:10:42;7.97;;;2.22;;
22711;SDS011;11523;50.390;8.072;2023-06-26T18:13:08;7.15;;;1.95;;
22711;SDS011;11523;50.390;8.072;2023-06-26T18:15:34;3.40;;;1.55;;
22711;SDS011;11523;50.390;8.072;2023-06-26T18:18:00;6.78;;;2.30;;